createdAt,value
2018-12-03T00:00:20.383Z,4.17
2018-12-03T00:02:49.009Z,5.20
2018-12-03T00:05:17.885Z,2.60
2018-12-03T00:07:46.133Z,1.27
2018-12-03T00:10:14.460Z,1.67
2018-12-03T00:12:42.620Z,3.70
2018-12-03T00:15:10.877Z,1.73
2018-12-03T00:17:39.141Z,0.83
2018-12-03T00:20:09.271Z,0.87
2018-12-03T00:22:37.541Z,1.07
2018-12-03T00:25:06.858Z,0.87
2018-12-03T00:27:35.064Z,2.37
2018-12-03T00:30:03.430Z,0.90
2018-12-03T00:32:32.428Z,1.60
2018-12-03T00:35:00.629Z,2.90
2018-12-03T00:37:28.976Z,3.90
2018-12-03T00:39:57.633Z,5.77
2018-12-03T00:42:25.835Z,2.70
2018-12-03T00:44:54.083Z,2.83
2018-12-03T00:47:22.394Z,2.13
2018-12-03T00:49:50.613Z,1.73
2018-12-03T00:52:18.818Z,2.00
2018-12-03T00:54:46.997Z,1.40
2018-12-03T00:57:15.270Z,2.23
2018-12-03T00:59:43.537Z,2.87
2018-12-03T01:02:29.426Z,1.23
2018-12-03T01:04:57.684Z,1.50
2018-12-03T01:07:26.103Z,1.50
2018-12-03T01:09:54.305Z,1.67
2018-12-03T01:12:22.593Z,2.87
2018-12-03T01:14:50.848Z,2.60
2018-12-03T01:17:19.126Z,2.83
2018-12-03T01:19:47.309Z,1.93
2018-12-03T01:22:15.490Z,2.80
2018-12-03T01:24:43.668Z,3.80
2018-12-03T01:27:11.882Z,2.33
2018-12-03T01:29:40.096Z,2.63
2018-12-03T01:32:08.347Z,5.00
2018-12-03T01:34:36.548Z,2.27
2018-12-03T01:37:04.770Z,2.40
2018-12-03T01:39:32.944Z,5.37
2018-12-03T01:42:01.092Z,5.50
2018-12-03T01:44:29.410Z,8.20
2018-12-03T01:46:57.656Z,4.30
2018-12-03T01:49:25.902Z,3.77
2018-12-03T01:51:54.116Z,5.30
2018-12-03T01:54:22.404Z,3.77
2018-12-03T01:56:50.641Z,5.20
2018-12-03T01:59:18.789Z,10.43
2018-12-03T02:01:47.221Z,9.43
2018-12-03T02:04:15.444Z,9.87
2018-12-03T02:06:43.816Z,14.07
2018-12-03T02:09:12.026Z,6.90
2018-12-03T02:11:40.201Z,12.50
2018-12-03T02:14:08.463Z,5.83
2018-12-03T02:16:36.633Z,8.07
2018-12-03T02:19:05.158Z,7.77
2018-12-03T02:21:33.344Z,5.40
2018-12-03T02:24:01.476Z,6.20
2018-12-03T02:26:29.628Z,4.37
2018-12-03T02:28:57.772Z,4.80
2018-12-03T02:31:26.013Z,7.03
2018-12-03T02:33:54.273Z,4.83
2018-12-03T02:36:22.482Z,5.13
2018-12-03T02:38:50.650Z,3.30
2018-12-03T02:41:18.882Z,4.20
2018-12-03T02:43:47.081Z,4.77
2018-12-03T02:46:15.280Z,3.73
2018-12-03T02:48:43.536Z,3.93
2018-12-03T02:51:11.813Z,8.53
2018-12-03T02:53:39.986Z,5.33
2018-12-03T02:56:08.209Z,5.77
2018-12-03T02:58:36.471Z,6.73
2018-12-03T03:01:04.766Z,7.37
2018-12-03T03:03:32.971Z,4.20
2018-12-03T03:06:01.187Z,8.63
2018-12-03T03:08:29.429Z,5.23
2018-12-03T03:10:57.613Z,8.50
2018-12-03T03:13:26.331Z,7.80
2018-12-03T03:15:54.518Z,5.57
2018-12-03T03:18:22.676Z,4.87
2018-12-03T03:20:50.943Z,4.83
2018-12-03T03:23:19.211Z,3.77
2018-12-03T03:25:47.479Z,5.77
2018-12-03T03:28:15.710Z,7.13
2018-12-03T03:30:43.898Z,6.77
2018-12-03T03:33:12.164Z,6.17
2018-12-03T03:35:40.452Z,3.93
2018-12-03T03:38:08.766Z,3.03
2018-12-03T03:40:37.062Z,3.27
2018-12-03T03:43:05.584Z,3.63
2018-12-03T03:45:33.811Z,4.67
2018-12-03T03:48:02.013Z,5.20
2018-12-03T03:50:30.503Z,4.37
2018-12-03T03:52:58.699Z,3.43
2018-12-03T03:55:26.899Z,2.50
2018-12-03T03:57:55.129Z,3.57
2018-12-03T04:00:23.361Z,3.13
2018-12-03T04:02:52.024Z,2.70
2018-12-03T04:05:19.789Z,5.10
2018-12-03T04:07:47.995Z,2.70
2018-12-03T04:10:16.595Z,2.67
2018-12-03T04:12:46.712Z,3.63
2018-12-03T04:15:15.910Z,1.93
2018-12-03T04:17:44.170Z,3.83
2018-12-03T04:21:19.164Z,3.77
2018-12-03T04:23:47.420Z,4.07
2018-12-03T04:26:15.608Z,5.37
2018-12-03T04:28:43.737Z,5.03
2018-12-03T04:31:11.885Z,2.70
2018-12-03T04:33:40.025Z,4.23
2018-12-03T04:36:08.180Z,3.00
2018-12-03T04:38:36.317Z,3.20
2018-12-03T04:41:04.466Z,1.73
2018-12-03T04:43:32.667Z,3.27
2018-12-03T04:46:00.854Z,2.67
2018-12-03T04:48:29.130Z,3.07
2018-12-03T04:50:57.241Z,2.57
2018-12-03T04:53:25.404Z,3.50
2018-12-03T04:55:53.720Z,3.13
2018-12-03T04:58:21.897Z,3.53
2018-12-03T05:00:50.026Z,3.03
2018-12-03T05:03:18.193Z,2.43
2018-12-03T05:05:46.466Z,3.13
2018-12-03T05:08:15.112Z,2.67
2018-12-03T05:10:43.384Z,3.23
2018-12-03T05:13:11.541Z,1.97
2018-12-03T05:15:39.713Z,4.20
2018-12-03T05:18:07.854Z,1.57
2018-12-03T05:20:36.069Z,5.80
2018-12-03T05:23:04.237Z,2.47
2018-12-03T05:25:32.667Z,5.53
2018-12-03T05:28:00.977Z,2.60
2018-12-03T05:30:29.156Z,4.53
2018-12-03T05:32:57.410Z,2.37
2018-12-03T05:35:27.234Z,2.20
2018-12-03T05:37:55.425Z,2.90
2018-12-03T05:40:26.012Z,4.40
2018-12-03T05:42:54.818Z,1.30
2018-12-03T05:45:23.119Z,1.63
2018-12-03T05:47:51.627Z,2.40
2018-12-03T05:50:19.856Z,2.93
2018-12-03T05:52:48.429Z,3.07
2018-12-03T05:55:16.677Z,5.77
2018-12-03T05:57:45.568Z,2.90
2018-12-03T06:00:17.018Z,4.97
2018-12-03T06:02:45.228Z,4.07
2018-12-03T06:05:14.143Z,5.57
2018-12-03T06:07:42.324Z,3.53
2018-12-03T06:10:11.800Z,4.57
2018-12-03T06:12:39.953Z,6.70
2018-12-03T06:15:09.905Z,3.73
2018-12-03T06:17:39.077Z,4.43
2018-12-03T06:20:09.436Z,4.30
2018-12-03T06:22:37.674Z,2.97
2018-12-03T06:25:09.013Z,5.83
2018-12-03T06:27:37.387Z,2.40
2018-12-03T06:30:09.561Z,2.50
2018-12-03T06:32:37.884Z,2.93
2018-12-03T06:35:07.786Z,3.70
2018-12-03T06:37:36.213Z,4.03
2018-12-03T06:40:08.513Z,5.37
2018-12-03T06:42:36.845Z,3.80
2018-12-03T06:45:05.498Z,2.27
2018-12-03T06:47:33.640Z,3.10
2018-12-03T06:50:01.805Z,3.17
2018-12-03T06:52:30.188Z,4.77
2018-12-03T06:54:58.688Z,3.93
2018-12-03T06:57:28.332Z,1.90
2018-12-03T06:59:57.115Z,4.13
2018-12-03T07:02:25.329Z,5.53
2018-12-03T07:04:53.660Z,3.83
2018-12-03T07:07:21.938Z,6.10
2018-12-03T07:09:50.446Z,7.03
2018-12-03T07:12:18.811Z,2.93
2018-12-03T07:14:47.009Z,3.13
2018-12-03T07:17:15.170Z,4.87
2018-12-03T07:19:43.318Z,6.80
2018-12-03T07:22:11.502Z,5.33
2018-12-03T07:24:39.656Z,7.10
2018-12-03T07:27:07.821Z,5.07
2018-12-03T07:29:36.134Z,6.53
2018-12-03T07:32:04.321Z,6.47
2018-12-03T07:34:32.516Z,5.03
2018-12-03T07:37:00.785Z,8.57
2018-12-03T07:39:29.002Z,9.80
2018-12-03T07:41:57.215Z,7.30
2018-12-03T07:44:25.487Z,7.43
2018-12-03T07:46:53.667Z,6.00
2018-12-03T07:49:21.906Z,4.77
2018-12-03T07:51:50.148Z,4.93
2018-12-03T07:54:18.343Z,8.53
2018-12-03T07:56:46.491Z,5.47
2018-12-03T07:59:14.680Z,5.57
2018-12-03T08:01:42.845Z,4.40
2018-12-03T08:04:11.062Z,5.33
2018-12-03T08:06:39.246Z,7.07
2018-12-03T08:09:09.218Z,4.47
2018-12-03T08:11:37.452Z,10.93
2018-12-03T08:14:05.996Z,10.73
2018-12-03T08:16:34.209Z,8.20
2018-12-03T08:19:02.408Z,7.00
2018-12-03T08:21:30.594Z,10.13
2018-12-03T08:24:01.477Z,5.97
2018-12-03T08:26:29.876Z,6.00
2018-12-03T08:28:58.014Z,9.67
2018-12-03T08:31:26.337Z,7.37
2018-12-03T08:33:54.570Z,6.63
2018-12-03T08:36:22.738Z,13.13
2018-12-03T08:38:50.907Z,7.53
2018-12-03T08:41:19.096Z,12.50
2018-12-03T08:43:47.248Z,11.80
2018-12-03T08:46:15.413Z,12.37
2018-12-03T08:48:43.585Z,11.97
2018-12-03T08:51:12.472Z,12.23
2018-12-03T08:53:41.144Z,15.53
2018-12-03T08:56:09.309Z,14.73
2018-12-03T08:58:37.450Z,8.50
2018-12-03T09:01:14.661Z,13.00
2018-12-03T09:03:44.264Z,14.63
2018-12-03T09:06:13.490Z,13.53
2018-12-03T09:08:46.370Z,10.97
2018-12-03T09:11:14.577Z,12.30
2018-12-03T09:13:42.749Z,10.87
2018-12-03T09:16:10.920Z,14.10
2018-12-03T09:18:40.584Z,12.83
2018-12-03T09:21:14.116Z,10.53
2018-12-03T09:23:43.625Z,14.87
2018-12-03T09:26:12.413Z,11.27
2018-12-03T09:28:40.548Z,12.70
2018-12-03T09:31:08.717Z,10.40
2018-12-03T09:33:36.889Z,9.67
2018-12-03T09:36:05.817Z,9.07
2018-12-03T09:38:43.977Z,7.37
2018-12-03T09:41:12.192Z,12.83
2018-12-03T09:43:42.865Z,12.13
2018-12-03T09:46:11.081Z,13.80
2018-12-03T09:48:39.330Z,12.03
2018-12-03T09:51:07.475Z,11.27
2018-12-03T09:53:35.665Z,13.40
2018-12-03T09:56:03.872Z,14.60
2018-12-03T09:58:32.022Z,9.77
2018-12-03T10:01:00.173Z,10.50
2018-12-03T10:03:33.736Z,16.80
2018-12-03T10:06:08.305Z,9.73
2018-12-03T10:08:36.650Z,8.27
2018-12-03T10:11:04.845Z,11.80
2018-12-03T10:13:33.110Z,9.07
2018-12-03T10:16:01.310Z,8.30
2018-12-03T10:18:29.519Z,11.73
2018-12-03T10:21:00.203Z,9.50
2018-12-03T10:23:28.454Z,10.70
2018-12-03T10:25:58.042Z,14.07
2018-12-03T10:28:26.938Z,11.17
2018-12-03T10:30:56.470Z,6.93
2018-12-03T10:33:27.886Z,7.10
2018-12-03T10:35:56.122Z,8.30
2018-12-03T10:38:27.146Z,8.77
2018-12-03T10:40:59.587Z,11.40
2018-12-03T10:43:27.736Z,10.97
2018-12-03T10:45:55.990Z,9.77
2018-12-03T10:48:24.162Z,9.03
2018-12-03T10:50:52.356Z,11.63
2018-12-03T10:53:24.769Z,8.93
2018-12-03T10:55:52.977Z,9.37
2018-12-03T10:58:21.175Z,8.13
2018-12-03T11:00:54.677Z,8.57
2018-12-03T11:03:28.190Z,8.33
2018-12-03T11:06:06.914Z,10.17
2018-12-03T11:08:35.076Z,8.73
2018-12-03T11:11:03.228Z,11.13
2018-12-03T11:13:31.408Z,14.23
2018-12-03T11:15:59.714Z,7.27
2018-12-03T11:18:28.715Z,13.03
2018-12-03T11:21:03.562Z,12.43
2018-12-03T11:23:34.509Z,10.47
2018-12-03T11:26:00.165Z,9.40
2018-12-03T11:28:36.741Z,11.90
2018-12-03T11:31:06.469Z,12.53
2018-12-03T11:33:34.612Z,10.83
2018-12-03T11:36:02.816Z,14.03
2018-12-03T15:11:00.074Z,11.80
2018-12-03T15:13:28.229Z,8.87
2018-12-03T15:15:56.453Z,7.80
2018-12-03T15:18:24.696Z,8.87
2018-12-03T15:20:54.673Z,7.97
2018-12-03T15:23:22.826Z,4.93
2018-12-03T15:25:50.977Z,11.57
2018-12-03T15:28:19.169Z,10.87
2018-12-03T15:30:47.312Z,11.27
2018-12-03T15:33:15.550Z,8.73
2018-12-03T15:35:43.869Z,5.50
2018-12-03T15:38:12.117Z,6.63
2018-12-03T15:40:40.377Z,6.83
2018-12-03T15:43:08.627Z,8.33
2018-12-03T15:45:36.974Z,10.30
2018-12-03T15:48:05.340Z,10.27
2018-12-03T15:50:33.584Z,8.63
2018-12-03T15:53:01.895Z,10.77
2018-12-03T15:55:30.198Z,5.57
2018-12-03T15:57:58.537Z,6.93
2018-12-03T16:00:26.861Z,4.10
2018-12-03T16:02:55.111Z,7.57
2018-12-03T16:05:25.289Z,8.00
2018-12-03T16:07:53.527Z,7.03
2018-12-03T16:10:21.713Z,8.17
2018-12-03T16:12:51.033Z,5.80
2018-12-03T16:15:19.712Z,5.27
2018-12-03T16:17:47.957Z,6.20
2018-12-03T16:20:16.334Z,10.20
2018-12-03T16:22:44.537Z,6.63
2018-12-03T16:25:15.814Z,6.17
2018-12-03T16:27:44.356Z,7.00
2018-12-03T16:30:17.206Z,4.53
2018-12-03T16:32:45.434Z,4.13
2018-12-03T16:35:13.638Z,7.93
2018-12-03T16:37:41.829Z,4.17
2018-12-03T16:40:10.444Z,4.00
2018-12-03T16:42:38.635Z,3.57
2018-12-03T16:45:08.784Z,4.60
2018-12-03T16:47:37.397Z,3.63
2018-12-03T16:50:07.861Z,5.07
2018-12-03T16:52:36.095Z,2.50
2018-12-03T16:55:04.575Z,4.87
2018-12-03T16:57:32.839Z,3.10
2018-12-03T17:00:01.077Z,3.37
2018-12-03T17:02:29.364Z,3.33
2018-12-03T17:04:59.259Z,2.83
2018-12-03T17:07:27.563Z,3.50
2018-12-03T17:09:57.143Z,4.10
2018-12-03T17:12:28.334Z,3.93
2018-12-03T17:14:56.634Z,7.40
2018-12-03T17:17:24.895Z,5.97
2018-12-03T17:19:54.122Z,2.70
2018-12-03T17:22:30.915Z,6.23
2018-12-03T17:24:59.204Z,6.00
2018-12-03T17:27:27.535Z,6.27
2018-12-03T17:29:55.805Z,5.53
2018-12-03T17:32:23.997Z,6.30
2018-12-03T17:34:53.370Z,5.07
2018-12-03T17:37:21.613Z,4.43
2018-12-03T17:39:49.818Z,3.97
2018-12-03T17:42:18.043Z,4.93
2018-12-03T17:44:46.217Z,6.27
2018-12-03T17:47:14.392Z,6.23
2018-12-03T17:49:42.770Z,5.60
2018-12-03T17:52:11.525Z,4.33
2018-12-03T17:54:39.699Z,5.83
2018-12-03T17:57:07.866Z,6.00
2018-12-03T17:59:36.101Z,3.67
2018-12-03T18:02:04.329Z,4.23
2018-12-03T18:04:32.556Z,6.07
2018-12-03T18:07:00.726Z,6.60
2018-12-03T18:09:28.848Z,8.93
2018-12-03T18:11:57.179Z,8.00
2018-12-03T18:14:25.340Z,3.53
2018-12-03T18:16:53.521Z,4.03
2018-12-03T18:19:21.705Z,6.83
2018-12-03T18:21:49.864Z,11.03
2018-12-03T18:24:18.158Z,7.17
2018-12-03T18:26:46.440Z,6.77
2018-12-03T18:29:14.695Z,9.73
2018-12-03T18:31:42.937Z,9.23
2018-12-03T18:34:11.132Z,11.60
2018-12-03T18:36:39.418Z,7.77
2018-12-03T18:39:08.937Z,9.37
2018-12-03T18:41:38.008Z,8.80
2018-12-03T18:44:06.330Z,7.97
2018-12-03T18:46:34.582Z,8.83
2018-12-03T18:49:08.280Z,7.00
2018-12-03T18:51:36.422Z,9.00
2018-12-03T18:54:04.825Z,9.73
2018-12-03T18:56:32.999Z,9.70
2018-12-03T18:59:04.152Z,7.37
2018-12-03T19:01:32.407Z,4.90
2018-12-03T19:04:00.698Z,10.37
2018-12-03T19:06:29.464Z,7.67
2018-12-03T19:08:57.768Z,10.50
2018-12-03T19:11:26.028Z,10.57
2018-12-03T19:13:55.180Z,7.97
2018-12-03T19:16:24.228Z,8.00
2018-12-03T19:18:52.432Z,10.00
2018-12-03T19:21:20.592Z,8.60
2018-12-03T19:23:48.753Z,10.67
2018-12-03T19:26:16.912Z,12.47
2018-12-03T19:28:45.201Z,10.73
2018-12-03T19:31:13.369Z,10.83
2018-12-03T19:33:41.698Z,9.07
2018-12-03T19:36:09.922Z,12.57
2018-12-03T19:38:38.088Z,10.33
2018-12-03T19:41:06.598Z,10.27
2018-12-03T19:43:34.761Z,10.77
2018-12-03T19:46:02.970Z,9.27
2018-12-03T19:48:31.201Z,11.37
2018-12-03T19:50:59.584Z,9.50
2018-12-03T19:53:27.897Z,10.33
2018-12-03T19:55:56.090Z,13.57
2018-12-03T19:58:42.645Z,16.57
2018-12-03T20:01:10.922Z,13.33
2018-12-03T20:03:39.282Z,16.13
2018-12-03T20:06:07.434Z,14.67
2018-12-03T20:08:35.861Z,16.73
2018-12-03T20:11:04.349Z,16.23
2018-12-03T20:13:32.509Z,13.60
2018-12-03T20:16:00.673Z,17.37
2018-12-03T20:18:28.921Z,13.57
2018-12-03T20:21:03.317Z,16.20
2018-12-03T20:23:37.480Z,11.77
2018-12-03T20:26:10.655Z,17.00
2018-12-03T20:28:49.391Z,15.00
2018-12-03T20:31:45.275Z,13.33
2018-12-03T20:34:25.674Z,17.87
2018-12-03T20:37:10.213Z,15.10
2018-12-03T20:40:03.457Z,15.10
2018-12-03T20:42:34.789Z,19.33
2018-12-03T20:46:09.761Z,15.57
2018-12-03T20:49:19.815Z,20.37
2018-12-03T20:51:48.830Z,19.27
2018-12-03T20:54:16.993Z,14.93
2018-12-03T20:56:45.164Z,18.93
2018-12-03T20:59:13.448Z,21.00
